Estación Meteorológica Peña el Pijo (Robertgarden) [ 11/17/17 23:48:26 CET ]

Fecha Hora Presion(HPa) Temp (°C) Humedad % Rocio (°C) Viento ( m/s) Direccion Lluvia 1Hora(mm) Lluvia 24H(mm) LLuvia Total(mm)
2017-Sep-11 01:01:46 1009.800 10.1 55 1.4         1457.65
2017-Sep-11 02:01:40 1010.000 9.2 59 1.6         1457.65
2017-Sep-11 03:01:39 1009.700 8.9 62 2.0         1457.65
2017-Sep-11 04:01:47 1009.400 9.1 64 2.6         1457.65
2017-Sep-11 05:01:41 1009.000 10.4 59 2.7         1457.65
2017-Sep-11 06:01:39 1008.800 11.2 55 2.4         1457.65
2017-Sep-11 07:01:46 1008.900 11.2 55 2.4         1457.65
2017-Sep-11 08:01:49 1009.500 11.2 54 2.2         1457.65
2017-Sep-11 09:01:45 1009.300 12.9 55 4.0         1457.65
2017-Sep-11 10:01:44 1009.200 21.0 41 7.2         1457.65
2017-Sep-11 11:02:01 1009.200 26.9 34 9.6         1457.65
2017-Sep-11 12:01:44 1009.100 29.9 30 10.5         1457.65
2017-Sep-11 13:01:54 1008.800 30.4 28 9.7         1457.65
2017-Sep-11 14:01:54 1008.600 30.6 26 8.7         1457.65
2017-Sep-11 15:01:49 1008.400 32.5 21 7.3         1457.65
2017-Sep-11 16:01:44 1007.900 32.9 19 6.0 0.7 SSW     1457.65
2017-Sep-11 17:01:56 1007.500 32.3 19 5.6         1457.65
2017-Sep-11 18:01:34 1007.500 31.6 19 4.8         1457.65
2017-Sep-11 19:01:39 1007.700 29.1 19 2.9 2.0 WNW     1457.65
2017-Sep-11 20:01:30 1007.700 25.3 24 3.1         1457.65
2017-Sep-11 21:01:57 1008.100 20.1 36 4.4         1457.65
2017-Sep-11 22:01:23 1008.700 16.9 43 4.2         1457.65
2017-Sep-11 23:01:52 1009.600 16.9 41 3.5         1457.65

Temperatura Máxima:32°    Temperatura Mínima:
Presión Máxima:1010.000 Hpa    Presión Mínima:1007.500 Hpa


Volver